sensor_id;sensor_type;location;lat;lon;timestamp;temperature;humidity
5683;DHT22;2864;49.220;8.654;2022-08-14T00:02:03;19.50;61.90
5683;DHT22;2864;49.220;8.654;2022-08-14T00:04:33;19.60;62.10
5683;DHT22;2864;49.220;8.654;2022-08-14T00:06:59;19.60;62.30
5683;DHT22;2864;49.220;8.654;2022-08-14T00:09:24;19.60;62.50
5683;DHT22;2864;49.220;8.654;2022-08-14T00:11:51;19.70;62.70
5683;DHT22;2864;49.220;8.654;2022-08-14T00:14:17;19.70;62.90
5683;DHT22;2864;49.220;8.654;2022-08-14T00:16:42;19.80;63.20
5683;DHT22;2864;49.220;8.654;2022-08-14T00:19:08;20.00;63.30
5683;DHT22;2864;49.220;8.654;2022-08-14T00:21:34;19.90;63.60
5683;DHT22;2864;49.220;8.654;2022-08-14T00:24:01;19.80;63.80
5683;DHT22;2864;49.220;8.654;2022-08-14T00:26:28;19.80;64.10
5683;DHT22;2864;49.220;8.654;2022-08-14T00:28:54;19.80;64.30
5683;DHT22;2864;49.220;8.654;2022-08-14T00:31:20;19.80;64.50
5683;DHT22;2864;49.220;8.654;2022-08-14T00:33:46;18.40;62.90
5683;DHT22;2864;49.220;8.654;2022-08-14T00:36:12;19.70;64.70
5683;DHT22;2864;49.220;8.654;2022-08-14T00:38:38;19.70;64.90
5683;DHT22;2864;49.220;8.654;2022-08-14T00:41:05;19.70;65.30
5683;DHT22;2864;49.220;8.654;2022-08-14T00:43:33;19.60;65.40
5683;DHT22;2864;49.220;8.654;2022-08-14T00:46:04;19.60;65.70
5683;DHT22;2864;49.220;8.654;2022-08-14T00:48:30;19.50;66.10
5683;DHT22;2864;49.220;8.654;2022-08-14T00:50:55;19.50;66.50
5683;DHT22;2864;49.220;8.654;2022-08-14T00:53:21;19.50;66.90
5683;DHT22;2864;49.220;8.654;2022-08-14T00:55:49;19.50;67.20
5683;DHT22;2864;49.220;8.654;2022-08-14T00:58:15;19.50;67.50
5683;DHT22;2864;49.220;8.654;2022-08-14T01:01:01;19.40;67.70
5683;DHT22;2864;49.220;8.654;2022-08-14T01:03:28;19.40;68.10
5683;DHT22;2864;49.220;8.654;2022-08-14T01:05:55;19.40;68.50
5683;DHT22;2864;49.220;8.654;2022-08-14T01:08:25;19.30;68.60
5683;DHT22;2864;49.220;8.654;2022-08-14T01:10:53;19.30;69.00
5683;DHT22;2864;49.220;8.654;2022-08-14T01:13:27;19.30;69.40
5683;DHT22;2864;49.220;8.654;2022-08-14T01:15:58;19.30;69.80
5683;DHT22;2864;49.220;8.654;2022-08-14T01:18:26;19.30;70.00
5683;DHT22;2864;49.220;8.654;2022-08-14T01:21:11;19.30;70.30
5683;DHT22;2864;49.220;8.654;2022-08-14T01:23:45;19.30;70.60
5683;DHT22;2864;49.220;8.654;2022-08-14T01:26:12;19.30;71.00
5683;DHT22;2864;49.220;8.654;2022-08-14T01:28:38;19.30;71.30
5683;DHT22;2864;49.220;8.654;2022-08-14T01:31:07;19.30;71.50
5683;DHT22;2864;49.220;8.654;2022-08-14T01:33:35;19.30;71.80
5683;DHT22;2864;49.220;8.654;2022-08-14T01:36:09;19.10;71.90
5683;DHT22;2864;49.220;8.654;2022-08-14T01:38:36;19.30;72.40
5683;DHT22;2864;49.220;8.654;2022-08-14T01:41:05;19.20;72.50
5683;DHT22;2864;49.220;8.654;2022-08-14T01:43:32;19.20;73.10
5683;DHT22;2864;49.220;8.654;2022-08-14T01:46:03;19.20;73.60
5683;DHT22;2864;49.220;8.654;2022-08-14T01:48:30;19.10;73.90
5683;DHT22;2864;49.220;8.654;2022-08-14T01:50:58;19.20;74.40
5683;DHT22;2864;49.220;8.654;2022-08-14T01:53:25;19.10;74.50
5683;DHT22;2864;49.220;8.654;2022-08-14T01:55:54;19.10;74.80
5683;DHT22;2864;49.220;8.654;2022-08-14T01:58:22;19.10;75.20
5683;DHT22;2864;49.220;8.654;2022-08-14T02:00:50;19.00;75.50
5683;DHT22;2864;49.220;8.654;2022-08-14T02:03:18;19.00;75.80
5683;DHT22;2864;49.220;8.654;2022-08-14T02:05:44;19.00;76.50
5683;DHT22;2864;49.220;8.654;2022-08-14T02:08:10;19.10;76.00
5683;DHT22;2864;49.220;8.654;2022-08-14T02:10:38;19.10;76.30
5683;DHT22;2864;49.220;8.654;2022-08-14T02:13:03;19.00;76.80
5683;DHT22;2864;49.220;8.654;2022-08-14T02:15:35;18.90;77.30
5683;DHT22;2864;49.220;8.654;2022-08-14T02:18:03;18.90;78.00
5683;DHT22;2864;49.220;8.654;2022-08-14T02:20:30;18.80;78.90
5683;DHT22;2864;49.220;8.654;2022-08-14T02:23:01;18.70;79.40
5683;DHT22;2864;49.220;8.654;2022-08-14T02:25:26;18.60;80.30
5683;DHT22;2864;49.220;8.654;2022-08-14T02:27:53;18.50;81.60
5683;DHT22;2864;49.220;8.654;2022-08-14T02:30:24;18.40;82.70
5683;DHT22;2864;49.220;8.654;2022-08-14T02:32:51;18.30;83.80
5683;DHT22;2864;49.220;8.654;2022-08-14T02:35:18;18.30;85.20
5683;DHT22;2864;49.220;8.654;2022-08-14T02:37:45;18.30;86.10
5683;DHT22;2864;49.220;8.654;2022-08-14T02:40:11;18.20;87.50
5683;DHT22;2864;49.220;8.654;2022-08-14T02:42:37;18.30;88.20
5683;DHT22;2864;49.220;8.654;2022-08-14T02:45:04;18.10;89.70
5683;DHT22;2864;49.220;8.654;2022-08-14T02:47:30;18.00;90.20
5683;DHT22;2864;49.220;8.654;2022-08-14T02:49:56;17.90;90.80
5683;DHT22;2864;49.220;8.654;2022-08-14T02:52:22;17.90;91.70
5683;DHT22;2864;49.220;8.654;2022-08-14T02:54:50;17.90;92.10
5683;DHT22;2864;49.220;8.654;2022-08-14T02:57:17;17.90;92.70
5683;DHT22;2864;49.220;8.654;2022-08-14T02:59:42;17.80;93.40
5683;DHT22;2864;49.220;8.654;2022-08-14T03:02:08;17.80;93.80
5683;DHT22;2864;49.220;8.654;2022-08-14T03:04:34;17.70;94.60
5683;DHT22;2864;49.220;8.654;2022-08-14T03:07:00;17.70;95.10
5683;DHT22;2864;49.220;8.654;2022-08-14T03:09:25;17.60;95.60
5683;DHT22;2864;49.220;8.654;2022-08-14T03:11:51;17.60;96.20
5683;DHT22;2864;49.220;8.654;2022-08-14T03:14:17;17.50;97.10
5683;DHT22;2864;49.220;8.654;2022-08-14T03:16:43;17.50;98.00
5683;DHT22;2864;49.220;8.654;2022-08-14T03:19:10;17.50;98.80
5683;DHT22;2864;49.220;8.654;2022-08-14T03:21:36;17.40;99.60
5683;DHT22;2864;49.220;8.654;2022-08-14T03:24:03;17.40;99.70
5683;DHT22;2864;49.220;8.654;2022-08-14T03:26:42;17.40;99.90
5683;DHT22;2864;49.220;8.654;2022-08-14T03:29:10;17.40;99.90
5683;DHT22;2864;49.220;8.654;2022-08-14T03:31:37;17.30;99.90
5683;DHT22;2864;49.220;8.654;2022-08-14T03:34:05;17.30;99.90
5683;DHT22;2864;49.220;8.654;2022-08-14T03:36:33;17.20;99.90
5683;DHT22;2864;49.220;8.654;2022-08-14T03:38:59;17.20;99.90
5683;DHT22;2864;49.220;8.654;2022-08-14T03:41:26;17.20;99.90
5683;DHT22;2864;49.220;8.654;2022-08-14T03:43:57;17.20;99.90
5683;DHT22;2864;49.220;8.654;2022-08-14T03:46:28;17.20;99.90
5683;DHT22;2864;49.220;8.654;2022-08-14T03:48:54;17.20;99.90
5683;DHT22;2864;49.220;8.654;2022-08-14T03:51:21;17.30;99.90
5683;DHT22;2864;49.220;8.654;2022-08-14T03:53:57;17.20;99.90
5683;DHT22;2864;49.220;8.654;2022-08-14T03:56:25;17.20;99.90
5683;DHT22;2864;49.220;8.654;2022-08-14T03:58:53;17.30;99.90
5683;DHT22;2864;49.220;8.654;2022-08-14T04:01:21;17.30;99.90
5683;DHT22;2864;49.220;8.654;2022-08-14T04:03:48;17.30;99.90
5683;DHT22;2864;49.220;8.654;2022-08-14T04:06:15;17.30;99.90
5683;DHT22;2864;49.220;8.654;2022-08-14T04:08:41;17.30;99.90
5683;DHT22;2864;49.220;8.654;2022-08-14T04:11:08;17.30;99.90
5683;DHT22;2864;49.220;8.654;2022-08-14T04:13:36;17.30;99.90
5683;DHT22;2864;49.220;8.654;2022-08-14T04:16:10;17.40;99.90
5683;DHT22;2864;49.220;8.654;2022-08-14T04:18:44;17.30;99.90
5683;DHT22;2864;49.220;8.654;2022-08-14T04:21:12;17.40;99.90
5683;DHT22;2864;49.220;8.654;2022-08-14T04:23:38;17.40;99.90
5683;DHT22;2864;49.220;8.654;2022-08-14T04:26:08;17.40;99.90
5683;DHT22;2864;49.220;8.654;2022-08-14T04:28:35;17.40;99.90
5683;DHT22;2864;49.220;8.654;2022-08-14T04:31:01;17.30;99.90
5683;DHT22;2864;49.220;8.654;2022-08-14T04:33:27;17.30;99.90
5683;DHT22;2864;49.220;8.654;2022-08-14T04:35:53;17.20;99.90
5683;DHT22;2864;49.220;8.654;2022-08-14T04:38:20;17.10;99.90
5683;DHT22;2864;49.220;8.654;2022-08-14T04:41:05;17.10;99.90
5683;DHT22;2864;49.220;8.654;2022-08-14T04:43:49;17.20;99.90
5683;DHT22;2864;49.220;8.654;2022-08-14T04:46:18;17.20;99.90
5683;DHT22;2864;49.220;8.654;2022-08-14T04:48:44;17.30;99.90
5683;DHT22;2864;49.220;8.654;2022-08-14T04:51:12;16.60;99.90
5683;DHT22;2864;49.220;8.654;2022-08-14T04:53:41;17.40;99.90
5683;DHT22;2864;49.220;8.654;2022-08-14T04:56:12;17.40;99.90
5683;DHT22;2864;49.220;8.654;2022-08-14T04:58:38;17.50;99.90
5683;DHT22;2864;49.220;8.654;2022-08-14T05:01:05;17.50;99.90
5683;DHT22;2864;49.220;8.654;2022-08-14T05:03:34;17.50;99.90
5683;DHT22;2864;49.220;8.654;2022-08-14T05:06:02;17.50;99.90
5683;DHT22;2864;49.220;8.654;2022-08-14T05:08:29;17.60;99.90
5683;DHT22;2864;49.220;8.654;2022-08-14T05:10:56;17.60;99.90
5683;DHT22;2864;49.220;8.654;2022-08-14T05:13:24;17.60;99.90
5683;DHT22;2864;49.220;8.654;2022-08-14T05:15:51;17.60;99.90
5683;DHT22;2864;49.220;8.654;2022-08-14T05:18:22;17.70;99.90
5683;DHT22;2864;49.220;8.654;2022-08-14T05:20:51;17.80;99.90
5683;DHT22;2864;49.220;8.654;2022-08-14T05:23:23;17.90;99.90
5683;DHT22;2864;49.220;8.654;2022-08-14T05:25:53;18.00;99.90
5683;DHT22;2864;49.220;8.654;2022-08-14T05:28:23;18.10;99.90
5683;DHT22;2864;49.220;8.654;2022-08-14T05:30:54;18.20;99.90
5683;DHT22;2864;49.220;8.654;2022-08-14T05:33:22;18.30;99.90
5683;DHT22;2864;49.220;8.654;2022-08-14T05:35:53;18.40;99.90
5683;DHT22;2864;49.220;8.654;2022-08-14T05:38:26;18.40;99.90
5683;DHT22;2864;49.220;8.654;2022-08-14T05:40:52;18.50;99.90
5683;DHT22;2864;49.220;8.654;2022-08-14T05:43:17;18.60;99.90
5683;DHT22;2864;49.220;8.654;2022-08-14T05:45:43;18.90;99.90
5683;DHT22;2864;49.220;8.654;2022-08-14T05:48:13;18.90;99.90
5683;DHT22;2864;49.220;8.654;2022-08-14T05:50:38;19.00;99.90
5683;DHT22;2864;49.220;8.654;2022-08-14T05:53:04;19.10;99.90
5683;DHT22;2864;49.220;8.654;2022-08-14T05:55:30;19.30;99.90
5683;DHT22;2864;49.220;8.654;2022-08-14T05:57:59;19.40;99.90
5683;DHT22;2864;49.220;8.654;2022-08-14T06:00:37;19.50;99.90
5683;DHT22;2864;49.220;8.654;2022-08-14T06:03:06;19.60;99.90
5683;DHT22;2864;49.220;8.654;2022-08-14T06:05:32;17.70;99.90
5683;DHT22;2864;49.220;8.654;2022-08-14T06:07:58;19.70;99.90
5683;DHT22;2864;49.220;8.654;2022-08-14T06:10:26;19.80;99.90
5683;DHT22;2864;49.220;8.654;2022-08-14T06:12:52;19.90;99.90
5683;DHT22;2864;49.220;8.654;2022-08-14T06:15:17;20.00;99.90
5683;DHT22;2864;49.220;8.654;2022-08-14T06:17:50;20.00;99.20
5683;DHT22;2864;49.220;8.654;2022-08-14T06:20:16;20.20;98.80
5683;DHT22;2864;49.220;8.654;2022-08-14T06:22:43;20.30;98.00
5683;DHT22;2864;49.220;8.654;2022-08-14T06:25:11;20.40;97.70
5683;DHT22;2864;49.220;8.654;2022-08-14T06:27:39;20.50;96.90
5683;DHT22;2864;49.220;8.654;2022-08-14T06:30:06;20.50;96.40
5683;DHT22;2864;49.220;8.654;2022-08-14T06:32:32;20.70;96.40
5683;DHT22;2864;49.220;8.654;2022-08-14T06:34:58;20.70;95.80
5683;DHT22;2864;49.220;8.654;2022-08-14T06:37:23;20.80;95.30
5683;DHT22;2864;49.220;8.654;2022-08-14T06:39:49;20.90;94.70
5683;DHT22;2864;49.220;8.654;2022-08-14T06:42:14;21.00;94.50
5683;DHT22;2864;49.220;8.654;2022-08-14T06:44:40;21.10;94.00
5683;DHT22;2864;49.220;8.654;2022-08-14T06:47:06;21.20;93.30
5683;DHT22;2864;49.220;8.654;2022-08-14T06:49:32;21.30;93.20
5683;DHT22;2864;49.220;8.654;2022-08-14T06:51:57;21.30;92.40
5683;DHT22;2864;49.220;8.654;2022-08-14T06:54:24;21.50;92.30
5683;DHT22;2864;49.220;8.654;2022-08-14T06:56:50;21.60;91.90
5683;DHT22;2864;49.220;8.654;2022-08-14T06:59:15;21.70;91.40
5683;DHT22;2864;49.220;8.654;2022-08-14T07:01:41;21.80;91.20
5683;DHT22;2864;49.220;8.654;2022-08-14T07:04:25;21.80;90.50
5683;DHT22;2864;49.220;8.654;2022-08-14T07:07:10;21.90;90.20
5683;DHT22;2864;49.220;8.654;2022-08-14T07:09:35;22.00;89.80
5683;DHT22;2864;49.220;8.654;2022-08-14T07:12:01;22.20;89.20
5683;DHT22;2864;49.220;8.654;2022-08-14T07:14:27;22.30;87.80
5683;DHT22;2864;49.220;8.654;2022-08-14T07:16:52;22.40;86.80
5683;DHT22;2864;49.220;8.654;2022-08-14T07:19:18;22.50;86.20
5683;DHT22;2864;49.220;8.654;2022-08-14T07:21:44;22.60;84.90
5683;DHT22;2864;49.220;8.654;2022-08-14T07:24:09;22.70;84.40
5683;DHT22;2864;49.220;8.654;2022-08-14T07:26:35;22.80;84.10
5683;DHT22;2864;49.220;8.654;2022-08-14T07:29:00;22.90;84.60
5683;DHT22;2864;49.220;8.654;2022-08-14T07:31:26;23.00;82.10
5683;DHT22;2864;49.220;8.654;2022-08-14T07:33:51;23.10;82.10
5683;DHT22;2864;49.220;8.654;2022-08-14T07:36:19;23.10;81.10
5683;DHT22;2864;49.220;8.654;2022-08-14T07:38:45;23.20;80.90
5683;DHT22;2864;49.220;8.654;2022-08-14T07:41:11;23.30;79.90
5683;DHT22;2864;49.220;8.654;2022-08-14T07:43:38;23.50;78.80
5683;DHT22;2864;49.220;8.654;2022-08-14T07:46:05;23.60;78.60
5683;DHT22;2864;49.220;8.654;2022-08-14T07:48:30;23.70;78.50
5683;DHT22;2864;49.220;8.654;2022-08-14T07:50:56;23.80;77.80
5683;DHT22;2864;49.220;8.654;2022-08-14T07:53:22;23.90;76.80
5683;DHT22;2864;49.220;8.654;2022-08-14T07:55:48;23.90;76.50
5683;DHT22;2864;49.220;8.654;2022-08-14T07:58:15;24.00;76.20
5683;DHT22;2864;49.220;8.654;2022-08-14T08:00:42;24.00;76.70
5683;DHT22;2864;49.220;8.654;2022-08-14T08:03:09;24.20;75.90
5683;DHT22;2864;49.220;8.654;2022-08-14T08:05:36;24.20;75.00
5683;DHT22;2864;49.220;8.654;2022-08-14T08:08:02;24.30;75.30
5683;DHT22;2864;49.220;8.654;2022-08-14T08:10:28;23.30;74.20
5683;DHT22;2864;49.220;8.654;2022-08-14T08:12:58;24.40;75.00
5683;DHT22;2864;49.220;8.654;2022-08-14T08:15:25;24.60;75.00
5683;DHT22;2864;49.220;8.654;2022-08-14T08:17:51;24.80;74.10
5683;DHT22;2864;49.220;8.654;2022-08-14T08:20:18;24.90;73.40
5683;DHT22;2864;49.220;8.654;2022-08-14T08:22:48;25.10;73.20
5683;DHT22;2864;49.220;8.654;2022-08-14T08:25:16;25.30;72.90
5683;DHT22;2864;49.220;8.654;2022-08-14T08:28:03;25.40;71.50
5683;DHT22;2864;49.220;8.654;2022-08-14T08:30:32;25.50;70.50
5683;DHT22;2864;49.220;8.654;2022-08-14T08:33:00;25.70;70.20
5683;DHT22;2864;49.220;8.654;2022-08-14T08:35:28;25.90;69.90
5683;DHT22;2864;49.220;8.654;2022-08-14T08:37:59;26.10;68.00
5683;DHT22;2864;49.220;8.654;2022-08-14T08:40:28;26.20;66.70
5683;DHT22;2864;49.220;8.654;2022-08-14T08:42:55;26.30;67.10
5683;DHT22;2864;49.220;8.654;2022-08-14T08:45:21;26.40;66.40
5683;DHT22;2864;49.220;8.654;2022-08-14T08:47:49;26.60;65.20
5683;DHT22;2864;49.220;8.654;2022-08-14T08:50:24;26.80;63.60
5683;DHT22;2864;49.220;8.654;2022-08-14T08:52:56;26.90;62.50
5683;DHT22;2864;49.220;8.654;2022-08-14T08:55:30;27.10;61.40
5683;DHT22;2864;49.220;8.654;2022-08-14T08:58:05;27.20;60.50
5683;DHT22;2864;49.220;8.654;2022-08-14T09:00:33;27.40;59.80
5683;DHT22;2864;49.220;8.654;2022-08-14T09:03:11;27.50;58.90
5683;DHT22;2864;49.220;8.654;2022-08-14T09:05:47;27.60;59.30
5683;DHT22;2864;49.220;8.654;2022-08-14T09:08:19;27.80;57.90
5683;DHT22;2864;49.220;8.654;2022-08-14T09:10:45;27.90;57.50
5683;DHT22;2864;49.220;8.654;2022-08-14T09:13:12;27.90;57.80
5683;DHT22;2864;49.220;8.654;2022-08-14T09:15:43;28.20;58.10
5683;DHT22;2864;49.220;8.654;2022-08-14T09:18:10;28.20;56.80
5683;DHT22;2864;49.220;8.654;2022-08-14T09:20:40;28.40;56.90
5683;DHT22;2864;49.220;8.654;2022-08-14T09:23:08;29.10;56.40
5683;DHT22;2864;49.220;8.654;2022-08-14T09:25:34;28.60;56.50
5683;DHT22;2864;49.220;8.654;2022-08-14T09:28:02;29.90;56.90
5683;DHT22;2864;49.220;8.654;2022-08-14T09:30:30;28.90;56.00
5683;DHT22;2864;49.220;8.654;2022-08-14T09:38:23;29.20;55.70
5683;DHT22;2864;49.220;8.654;2022-08-14T09:46:08;29.30;54.60
5683;DHT22;2864;49.220;8.654;2022-08-14T09:48:34;29.40;54.20
5683;DHT22;2864;49.220;8.654;2022-08-14T09:51:00;29.70;52.70
5683;DHT22;2864;49.220;8.654;2022-08-14T09:53:42;29.80;52.90
5683;DHT22;2864;49.220;8.654;2022-08-14T09:56:12;29.90;52.80
5683;DHT22;2864;49.220;8.654;2022-08-14T09:58:43;30.10;53.70
5683;DHT22;2864;49.220;8.654;2022-08-14T10:01:14;30.10;52.50
5683;DHT22;2864;49.220;8.654;2022-08-14T10:04:16;30.00;52.30
5683;DHT22;2864;49.220;8.654;2022-08-14T10:06:43;30.00;51.40
5683;DHT22;2864;49.220;8.654;2022-08-14T10:09:09;30.30;51.60
5683;DHT22;2864;49.220;8.654;2022-08-14T10:11:37;30.40;51.10
5683;DHT22;2864;49.220;8.654;2022-08-14T10:14:17;30.40;50.90
5683;DHT22;2864;49.220;8.654;2022-08-14T10:16:48;30.50;50.80
5683;DHT22;2864;49.220;8.654;2022-08-14T10:19:17;30.40;50.60
5683;DHT22;2864;49.220;8.654;2022-08-14T10:22:22;29.30;49.90
5683;DHT22;2864;49.220;8.654;2022-08-14T10:24:42;30.70;50.50
5683;DHT22;2864;49.220;8.654;2022-08-14T10:27:21;31.00;50.60
5683;DHT22;2864;49.220;8.654;2022-08-14T10:29:52;31.10;50.30
5683;DHT22;2864;49.220;8.654;2022-08-14T10:32:19;31.20;50.10
5683;DHT22;2864;49.220;8.654;2022-08-14T10:34:47;31.30;50.60
5683;DHT22;2864;49.220;8.654;2022-08-14T10:37:15;31.50;50.30
5683;DHT22;2864;49.220;8.654;2022-08-14T10:39:56;31.70;49.80
5683;DHT22;2864;49.220;8.654;2022-08-14T10:42:22;31.70;49.30
5683;DHT22;2864;49.220;8.654;2022-08-14T10:44:48;31.70;49.60
5683;DHT22;2864;49.220;8.654;2022-08-14T10:47:15;31.90;49.70
5683;DHT22;2864;49.220;8.654;2022-08-14T10:49:58;32.00;49.60
5683;DHT22;2864;49.220;8.654;2022-08-14T10:52:28;33.10;49.60
5683;DHT22;2864;49.220;8.654;2022-08-14T10:55:15;32.20;49.70
5683;DHT22;2864;49.220;8.654;2022-08-14T10:57:52;32.30;49.50
5683;DHT22;2864;49.220;8.654;2022-08-14T11:00:20;32.40;49.50
5683;DHT22;2864;49.220;8.654;2022-08-14T11:03:00;32.30;49.40
5683;DHT22;2864;49.220;8.654;2022-08-14T11:05:37;32.20;49.30
5683;DHT22;2864;49.220;8.654;2022-08-14T11:08:06;32.30;49.10
5683;DHT22;2864;49.220;8.654;2022-08-14T11:10:43;32.30;49.60
5683;DHT22;2864;49.220;8.654;2022-08-14T11:13:14;32.50;49.10
5683;DHT22;2864;49.220;8.654;2022-08-14T11:15:40;32.60;48.60
5683;DHT22;2864;49.220;8.654;2022-08-14T11:18:06;32.60;48.80
5683;DHT22;2864;49.220;8.654;2022-08-14T11:20:32;32.60;48.60
5683;DHT22;2864;49.220;8.654;2022-08-14T11:22:59;32.60;49.00
5683;DHT22;2864;49.220;8.654;2022-08-14T11:25:29;32.80;49.20
5683;DHT22;2864;49.220;8.654;2022-08-14T11:27:58;32.70;48.50
5683;DHT22;2864;49.220;8.654;2022-08-14T11:30:26;32.20;48.40
5683;DHT22;2864;49.220;8.654;2022-08-14T11:32:53;32.50;49.00
5683;DHT22;2864;49.220;8.654;2022-08-14T11:35:24;32.60;49.30
5683;DHT22;2864;49.220;8.654;2022-08-14T11:37:58;32.80;49.00
5683;DHT22;2864;49.220;8.654;2022-08-14T11:40:25;33.00;48.40
5683;DHT22;2864;49.220;8.654;2022-08-14T11:42:53;33.10;48.50
5683;DHT22;2864;49.220;8.654;2022-08-14T11:45:23;33.20;48.90
5683;DHT22;2864;49.220;8.654;2022-08-14T11:47:50;33.40;48.00
5683;DHT22;2864;49.220;8.654;2022-08-14T11:50:37;33.70;48.00
5683;DHT22;2864;49.220;8.654;2022-08-14T11:53:02;33.80;48.20
5683;DHT22;2864;49.220;8.654;2022-08-14T11:55:34;33.90;47.70
5683;DHT22;2864;49.220;8.654;2022-08-14T11:58:05;34.00;47.90
5683;DHT22;2864;49.220;8.654;2022-08-14T12:00:48;34.00;47.30
5683;DHT22;2864;49.220;8.654;2022-08-14T12:03:14;34.10;47.40
5683;DHT22;2864;49.220;8.654;2022-08-14T12:05:40;34.00;48.00
5683;DHT22;2864;49.220;8.654;2022-08-14T12:08:08;33.90;47.90
5683;DHT22;2864;49.220;8.654;2022-08-14T12:10:36;33.80;47.30
5683;DHT22;2864;49.220;8.654;2022-08-14T12:13:16;34.00;47.00
5683;DHT22;2864;49.220;8.654;2022-08-14T12:15:45;34.10;46.90
5683;DHT22;2864;49.220;8.654;2022-08-14T12:18:11;34.30;46.40
5683;DHT22;2864;49.220;8.654;2022-08-14T12:20:39;34.30;46.40
5683;DHT22;2864;49.220;8.654;2022-08-14T12:23:22;34.30;46.80
5683;DHT22;2864;49.220;8.654;2022-08-14T12:25:48;34.40;46.80
5683;DHT22;2864;49.220;8.654;2022-08-14T12:28:14;34.70;46.70
5683;DHT22;2864;49.220;8.654;2022-08-14T12:30:42;34.60;46.60
5683;DHT22;2864;49.220;8.654;2022-08-14T12:33:22;34.80;46.50
5683;DHT22;2864;49.220;8.654;2022-08-14T12:35:51;34.60;47.10
5683;DHT22;2864;49.220;8.654;2022-08-14T12:38:17;34.50;46.00
5683;DHT22;2864;49.220;8.654;2022-08-14T12:40:48;34.30;46.40
5683;DHT22;2864;49.220;8.654;2022-08-14T12:43:15;34.40;46.00
5683;DHT22;2864;49.220;8.654;2022-08-14T12:45:50;34.70;46.10
5683;DHT22;2864;49.220;8.654;2022-08-14T12:48:17;35.00;46.30
5683;DHT22;2864;49.220;8.654;2022-08-14T12:50:44;34.90;45.60
5683;DHT22;2864;49.220;8.654;2022-08-14T12:53:10;35.20;45.90
5683;DHT22;2864;49.220;8.654;2022-08-14T12:55:37;35.70;45.40
5683;DHT22;2864;49.220;8.654;2022-08-14T12:58:05;35.70;45.10
5683;DHT22;2864;49.220;8.654;2022-08-14T13:00:36;36.30;45.70
5683;DHT22;2864;49.220;8.654;2022-08-14T13:03:03;36.90;44.00
5683;DHT22;2864;49.220;8.654;2022-08-14T13:05:32;37.10;44.30
5683;DHT22;2864;49.220;8.654;2022-08-14T13:08:02;38.10;44.70
5683;DHT22;2864;49.220;8.654;2022-08-14T13:10:32;37.20;44.00
5683;DHT22;2864;49.220;8.654;2022-08-14T13:12:58;37.90;43.50
5683;DHT22;2864;49.220;8.654;2022-08-14T13:15:24;37.80;44.10
5683;DHT22;2864;49.220;8.654;2022-08-14T13:17:52;38.60;43.60
5683;DHT22;2864;49.220;8.654;2022-08-14T13:20:24;38.90;43.30
5683;DHT22;2864;49.220;8.654;2022-08-14T13:22:51;39.30;43.30
5683;DHT22;2864;49.220;8.654;2022-08-14T13:25:19;40.10;42.40
5683;DHT22;2864;49.220;8.654;2022-08-14T13:27:47;40.00;42.20
5683;DHT22;2864;49.220;8.654;2022-08-14T13:30:13;39.80;42.10
5683;DHT22;2864;49.220;8.654;2022-08-14T13:32:39;39.50;42.30
5683;DHT22;2864;49.220;8.654;2022-08-14T13:35:11;39.30;42.20
5683;DHT22;2864;49.220;8.654;2022-08-14T13:37:38;38.90;42.60
5683;DHT22;2864;49.220;8.654;2022-08-14T13:40:05;39.10;42.10
5683;DHT22;2864;49.220;8.654;2022-08-14T13:42:31;38.90;41.60
5683;DHT22;2864;49.220;8.654;2022-08-14T13:44:58;39.10;41.70
5683;DHT22;2864;49.220;8.654;2022-08-14T13:47:26;39.80;41.70
5683;DHT22;2864;49.220;8.654;2022-08-14T13:49:58;40.30;41.80
5683;DHT22;2864;49.220;8.654;2022-08-14T13:52:32;40.90;41.20
5683;DHT22;2864;49.220;8.654;2022-08-14T13:55:02;41.40;40.90
5683;DHT22;2864;49.220;8.654;2022-08-14T13:57:32;42.10;41.10
5683;DHT22;2864;49.220;8.654;2022-08-14T14:00:03;41.50;40.60
5683;DHT22;2864;49.220;8.654;2022-08-14T14:02:33;40.70;40.80
5683;DHT22;2864;49.220;8.654;2022-08-14T14:05:02;40.40;40.60
5683;DHT22;2864;49.220;8.654;2022-08-14T14:07:30;40.80;40.70
5683;DHT22;2864;49.220;8.654;2022-08-14T14:10:00;41.10;41.30
5683;DHT22;2864;49.220;8.654;2022-08-14T14:12:26;41.00;40.80
5683;DHT22;2864;49.220;8.654;2022-08-14T14:14:52;40.90;40.80
5683;DHT22;2864;49.220;8.654;2022-08-14T14:17:18;41.50;40.00
5683;DHT22;2864;49.220;8.654;2022-08-14T14:19:50;40.90;40.20
5683;DHT22;2864;49.220;8.654;2022-08-14T14:22:16;40.40;40.80
5683;DHT22;2864;49.220;8.654;2022-08-14T14:24:43;40.80;40.60
5683;DHT22;2864;49.220;8.654;2022-08-14T14:27:12;40.30;40.90
5683;DHT22;2864;49.220;8.654;2022-08-14T14:29:44;40.70;40.60
5683;DHT22;2864;49.220;8.654;2022-08-14T14:32:14;40.60;40.90
5683;DHT22;2864;49.220;8.654;2022-08-14T14:34:41;40.80;40.30
5683;DHT22;2864;49.220;8.654;2022-08-14T14:37:09;39.70;40.00
5683;DHT22;2864;49.220;8.654;2022-08-14T14:39:36;39.60;40.10
5683;DHT22;2864;49.220;8.654;2022-08-14T14:42:03;39.70;40.10
5683;DHT22;2864;49.220;8.654;2022-08-14T14:44:34;39.10;40.60
5683;DHT22;2864;49.220;8.654;2022-08-14T14:47:07;39.40;41.00
5683;DHT22;2864;49.220;8.654;2022-08-14T14:49:33;39.70;40.50
5683;DHT22;2864;49.220;8.654;2022-08-14T14:52:01;39.90;40.90
5683;DHT22;2864;49.220;8.654;2022-08-14T14:54:30;40.60;40.10
5683;DHT22;2864;49.220;8.654;2022-08-14T14:56:58;40.70;40.00
5683;DHT22;2864;49.220;8.654;2022-08-14T14:59:25;41.90;39.80
5683;DHT22;2864;49.220;8.654;2022-08-14T15:01:53;42.60;39.80
5683;DHT22;2864;49.220;8.654;2022-08-14T15:04:23;42.70;39.00
5683;DHT22;2864;49.220;8.654;2022-08-14T15:06:50;43.00;39.60
5683;DHT22;2864;49.220;8.654;2022-08-14T15:09:16;41.90;39.40
5683;DHT22;2864;49.220;8.654;2022-08-14T15:11:42;41.40;39.70
5683;DHT22;2864;49.220;8.654;2022-08-14T15:14:08;40.90;40.20
5683;DHT22;2864;49.220;8.654;2022-08-14T15:16:34;40.80;38.70
5683;DHT22;2864;49.220;8.654;2022-08-14T15:19:00;40.60;39.00
5683;DHT22;2864;49.220;8.654;2022-08-14T15:21:26;40.30;38.90
5683;DHT22;2864;49.220;8.654;2022-08-14T15:23:51;40.10;39.10
5683;DHT22;2864;49.220;8.654;2022-08-14T15:26:18;39.50;39.60
5683;DHT22;2864;49.220;8.654;2022-08-14T15:28:44;39.10;39.50
5683;DHT22;2864;49.220;8.654;2022-08-14T15:31:09;38.50;39.30
5683;DHT22;2864;49.220;8.654;2022-08-14T15:33:35;38.10;39.30
5683;DHT22;2864;49.220;8.654;2022-08-14T15:36:20;37.60;40.40
5683;DHT22;2864;49.220;8.654;2022-08-14T15:38:46;37.30;40.00
5683;DHT22;2864;49.220;8.654;2022-08-14T15:41:12;36.80;41.10
5683;DHT22;2864;49.220;8.654;2022-08-14T15:43:38;36.90;40.80
5683;DHT22;2864;49.220;8.654;2022-08-14T15:46:07;36.90;40.80
5683;DHT22;2864;49.220;8.654;2022-08-14T15:48:33;36.50;40.70
5683;DHT22;2864;49.220;8.654;2022-08-14T15:51:00;36.40;40.80
5683;DHT22;2864;49.220;8.654;2022-08-14T15:53:26;36.00;40.30
5683;DHT22;2864;49.220;8.654;2022-08-14T15:55:53;35.20;40.50
5683;DHT22;2864;49.220;8.654;2022-08-14T15:58:20;34.80;40.40
5683;DHT22;2864;49.220;8.654;2022-08-14T16:00:46;34.50;40.40
5683;DHT22;2864;49.220;8.654;2022-08-14T16:03:30;34.60;41.60
5683;DHT22;2864;49.220;8.654;2022-08-14T16:05:55;34.50;41.70
5683;DHT22;2864;49.220;8.654;2022-08-14T16:08:21;34.50;42.30
5683;DHT22;2864;49.220;8.654;2022-08-14T16:10:47;34.60;42.30
5683;DHT22;2864;49.220;8.654;2022-08-14T16:13:14;34.60;41.50
5683;DHT22;2864;49.220;8.654;2022-08-14T16:15:39;34.80;40.60
5683;DHT22;2864;49.220;8.654;2022-08-14T16:18:12;34.90;40.90
5683;DHT22;2864;49.220;8.654;2022-08-14T16:20:44;35.30;40.40
5683;DHT22;2864;49.220;8.654;2022-08-14T16:23:25;35.20;41.40